createdAt,value
2023-04-17T00:02:00.549Z,100.00
2023-04-17T00:04:29.816Z,100.00
2023-04-17T00:06:59.772Z,100.00
2023-04-17T00:09:36.198Z,100.00
2023-04-17T00:12:05.943Z,100.00
2023-04-17T00:14:34.750Z,100.00
2023-04-17T00:17:01.211Z,100.00
2023-04-17T00:19:27.659Z,100.00
2023-04-17T00:21:54.100Z,100.00
2023-04-17T00:24:20.653Z,100.00
2023-04-17T00:26:49.701Z,100.00
2023-04-17T00:29:16.231Z,100.00
2023-04-17T00:31:43.488Z,100.00
2023-04-17T00:34:10.084Z,100.00
2023-04-17T00:36:36.606Z,100.00
2023-04-17T00:39:03.140Z,100.00
2023-04-17T00:41:29.598Z,100.00
2023-04-17T00:43:56.156Z,100.00
2023-04-17T00:46:25.714Z,100.00
2023-04-17T00:48:52.559Z,100.00
2023-04-17T00:51:19.170Z,100.00
2023-04-17T00:53:46.055Z,100.00
2023-04-17T00:56:16.815Z,100.00
2023-04-17T00:58:43.932Z,100.00
2023-04-17T01:01:12.189Z,100.00
2023-04-17T01:03:38.801Z,100.00
2023-04-17T01:06:06.170Z,100.00
2023-04-17T01:08:41.560Z,100.00
2023-04-17T01:11:12.116Z,100.00
2023-04-17T01:13:48.816Z,100.00
2023-04-17T01:16:21.806Z,100.00
2023-04-17T01:18:48.448Z,100.00
2023-04-17T01:21:15.369Z,100.00
2023-04-17T01:23:53.105Z,100.00
2023-04-17T01:26:24.519Z,100.00
2023-04-17T01:28:56.618Z,100.00
2023-04-17T01:31:28.190Z,100.00
2023-04-17T01:33:54.881Z,100.00
2023-04-17T01:36:21.589Z,100.00
2023-04-17T01:38:48.170Z,100.00
2023-04-17T01:41:14.682Z,100.00
2023-04-17T01:43:44.077Z,100.00
2023-04-17T01:46:12.720Z,100.00
2023-04-17T01:48:39.799Z,100.00
2023-04-17T01:51:06.382Z,100.00
2023-04-17T01:53:33.874Z,100.00
2023-04-17T01:56:01.966Z,100.00
2023-04-17T01:58:28.825Z,100.00
2023-04-17T02:00:55.492Z,100.00
2023-04-17T02:03:24.417Z,100.00
2023-04-17T02:05:53.570Z,100.00
2023-04-17T02:08:20.126Z,100.00
2023-04-17T02:10:46.608Z,100.00
2023-04-17T02:13:13.293Z,100.00
2023-04-17T02:15:40.329Z,100.00
2023-04-17T02:18:07.375Z,100.00
2023-04-17T02:20:34.656Z,100.00
2023-04-17T02:23:02.579Z,100.00
2023-04-17T02:25:29.682Z,100.00
2023-04-17T02:27:56.782Z,100.00
2023-04-17T02:30:24.181Z,100.00
2023-04-17T02:32:56.208Z,100.00
2023-04-17T02:35:28.049Z,100.00
2023-04-17T02:37:54.816Z,100.00
2023-04-17T02:40:21.358Z,100.00
2023-04-17T02:42:47.846Z,100.00
2023-04-17T02:45:14.322Z,100.00
2023-04-17T02:47:41.308Z,100.00
2023-04-17T02:50:09.069Z,100.00
2023-04-17T02:52:35.548Z,100.00
2023-04-17T02:55:02.088Z,100.00
2023-04-17T02:57:28.701Z,100.00
2023-04-17T02:59:55.330Z,100.00
2023-04-17T03:02:22.213Z,100.00
2023-04-17T03:04:50.233Z,100.00
2023-04-17T03:07:18.768Z,100.00
2023-04-17T03:09:48.955Z,100.00
2023-04-17T03:12:17.131Z,100.00
2023-04-17T03:14:44.217Z,100.00
2023-04-17T03:17:12.120Z,100.00
2023-04-17T03:19:38.560Z,100.00
2023-04-17T03:22:05.876Z,100.00
2023-04-17T03:24:33.325Z,100.00
2023-04-17T03:27:03.731Z,100.00
2023-04-17T03:29:30.257Z,100.00
2023-04-17T03:31:56.757Z,100.00
2023-04-17T03:34:23.498Z,100.00
2023-04-17T03:36:49.959Z,100.00
2023-04-17T03:39:19.017Z,100.00
2023-04-17T03:41:45.450Z,100.00
2023-04-17T03:44:12.599Z,100.00
2023-04-17T03:46:39.155Z,100.00
2023-04-17T03:49:06.237Z,100.00
2023-04-17T03:51:32.727Z,100.00
2023-04-17T03:54:02.463Z,100.00
2023-04-17T03:56:28.926Z,100.00
2023-04-17T03:58:55.447Z,100.00
2023-04-17T04:01:22.373Z,100.00
2023-04-17T04:03:49.336Z,100.00
2023-04-17T04:06:20.200Z,100.00
2023-04-17T04:08:46.833Z,100.00
2023-04-17T04:11:13.916Z,100.00
2023-04-17T04:13:40.823Z,100.00
2023-04-17T04:16:08.274Z,100.00
2023-04-17T04:18:36.167Z,100.00
2023-04-17T04:21:02.708Z,100.00
2023-04-17T04:23:30.579Z,100.00
2023-04-17T04:25:57.973Z,100.00
2023-04-17T04:28:24.515Z,100.00
2023-04-17T04:30:53.501Z,100.00
2023-04-17T04:33:20.898Z,100.00
2023-04-17T04:35:48.518Z,100.00
2023-04-17T04:38:20.061Z,100.00
2023-04-17T04:40:50.017Z,100.00
2023-04-17T04:43:16.656Z,100.00
2023-04-17T04:45:43.311Z,100.00
2023-04-17T04:48:09.829Z,100.00
2023-04-17T04:50:36.458Z,100.00
2023-04-17T04:53:02.951Z,100.00
2023-04-17T04:55:30.774Z,100.00
2023-04-17T04:57:57.588Z,100.00
2023-04-17T05:00:24.872Z,100.00
2023-04-17T05:02:51.437Z,100.00
2023-04-17T05:05:18.190Z,100.00
2023-04-17T05:07:44.648Z,100.00
2023-04-17T05:10:11.206Z,100.00
2023-04-17T05:12:37.842Z,100.00
2023-04-17T05:15:04.794Z,100.00
2023-04-17T05:17:31.371Z,100.00
2023-04-17T05:19:57.952Z,100.00
2023-04-17T05:22:27.584Z,100.00
2023-04-17T05:24:54.163Z,100.00
2023-04-17T05:27:20.696Z,100.00
2023-04-17T05:29:47.253Z,100.00
2023-04-17T05:32:17.185Z,100.00
2023-04-17T05:34:43.649Z,100.00
2023-04-17T05:37:10.093Z,100.00
2023-04-17T05:39:36.636Z,100.00
2023-04-17T05:42:03.138Z,100.00
2023-04-17T05:44:30.172Z,100.00
2023-04-17T05:46:57.387Z,100.00
2023-04-17T05:49:23.918Z,100.00
2023-04-17T05:51:52.708Z,100.00
2023-04-17T05:54:19.175Z,100.00
2023-04-17T05:56:45.760Z,100.00
2023-04-17T05:59:12.447Z,100.00
2023-04-17T06:01:39.593Z,100.00
2023-04-17T06:04:06.621Z,100.00
2023-04-17T06:06:33.426Z,100.00
2023-04-17T06:08:59.857Z,100.00
2023-04-17T06:11:27.173Z,100.00
2023-04-17T06:13:53.710Z,100.00
2023-04-17T06:16:20.472Z,100.00
2023-04-17T06:18:49.726Z,100.00
2023-04-17T06:21:18.537Z,100.00
2023-04-17T06:23:44.982Z,100.00
2023-04-17T06:26:12.292Z,100.00
2023-04-17T06:28:38.785Z,100.00
2023-04-17T06:31:05.450Z,100.00
2023-04-17T06:33:32.499Z,100.00
2023-04-17T06:35:58.961Z,100.00
2023-04-17T06:38:25.424Z,100.00
2023-04-17T06:40:52.839Z,100.00
2023-04-17T06:43:19.365Z,100.00
2023-04-17T06:45:45.873Z,100.00
2023-04-17T06:48:12.346Z,100.00
2023-04-17T06:50:38.896Z,100.00
2023-04-17T06:53:05.732Z,100.00
2023-04-17T06:55:32.235Z,100.00
2023-04-17T06:57:58.714Z,100.00
2023-04-17T07:00:25.365Z,100.00
2023-04-17T07:02:52.009Z,100.00
2023-04-17T07:05:18.597Z,100.00
2023-04-17T07:07:45.209Z,100.00
2023-04-17T07:10:11.738Z,100.00
2023-04-17T07:12:38.241Z,100.00
2023-04-17T07:15:05.094Z,100.00
2023-04-17T07:17:31.704Z,100.00
2023-04-17T07:19:58.161Z,100.00
2023-04-17T07:22:26.585Z,100.00
2023-04-17T07:24:53.754Z,100.00
2023-04-17T07:27:20.349Z,100.00
2023-04-17T07:29:52.823Z,100.00
2023-04-17T07:32:19.396Z,100.00
2023-04-17T07:34:45.989Z,100.00
2023-04-17T07:37:12.472Z,100.00
2023-04-17T07:39:39.014Z,100.00
2023-04-17T07:42:08.766Z,100.00
2023-04-17T07:44:35.488Z,100.00
2023-04-17T07:47:02.152Z,100.00
2023-04-17T07:49:28.789Z,100.00
2023-04-17T07:51:55.565Z,100.00
2023-04-17T07:54:22.043Z,100.00
2023-04-17T07:56:49.444Z,100.00
2023-04-17T07:59:19.037Z,100.00
2023-04-17T08:01:45.574Z,100.00
2023-04-17T08:04:15.516Z,100.00
2023-04-17T08:06:42.172Z,100.00
2023-04-17T08:09:08.635Z,100.00
2023-04-17T08:11:40.144Z,100.00
2023-04-17T08:14:12.810Z,100.00
2023-04-17T08:16:39.305Z,100.00
2023-04-17T08:19:05.880Z,100.00
2023-04-17T08:21:32.404Z,100.00
2023-04-17T08:23:59.036Z,100.00
2023-04-17T08:26:25.516Z,100.00
2023-04-17T08:28:53.728Z,100.00
2023-04-17T08:31:20.406Z,100.00
2023-04-17T08:33:46.920Z,100.00
2023-04-17T08:36:13.669Z,100.00
2023-04-17T08:38:42.036Z,100.00
2023-04-17T08:41:13.258Z,100.00
2023-04-17T08:43:40.272Z,100.00
2023-04-17T08:46:07.532Z,100.00
2023-04-17T08:48:34.191Z,100.00
2023-04-17T08:51:01.711Z,100.00
2023-04-17T08:53:28.220Z,100.00
2023-04-17T08:55:54.690Z,100.00
2023-04-17T08:58:28.448Z,100.00
2023-04-17T09:00:55.945Z,100.00
2023-04-17T09:03:22.553Z,100.00
2023-04-17T09:05:49.201Z,100.00
2023-04-17T09:08:20.769Z,100.00
2023-04-17T09:10:48.792Z,98.61
2023-04-17T09:13:20.877Z,94.32
2023-04-17T09:16:03.399Z,93.82
2023-04-17T09:18:31.474Z,94.08
2023-04-17T09:20:59.826Z,93.66
2023-04-17T09:23:45.838Z,98.14
2023-04-17T09:26:16.562Z,94.29
2023-04-17T09:29:14.604Z,89.80
2023-04-17T09:31:42.991Z,87.27
2023-04-17T09:34:15.280Z,85.13
2023-04-17T09:36:43.836Z,89.10
2023-04-17T09:39:23.804Z,85.57
2023-04-17T09:42:02.317Z,85.58
2023-04-17T09:44:30.329Z,86.34
2023-04-17T09:46:57.323Z,83.99
2023-04-17T09:49:52.829Z,82.52
2023-04-17T09:52:23.745Z,80.48
2023-04-17T09:54:51.308Z,83.31
2023-04-17T09:57:18.615Z,75.40
2023-04-17T09:59:48.047Z,77.94
2023-04-17T10:02:17.025Z,81.04
2023-04-17T10:04:45.150Z,82.58
2023-04-17T10:07:13.252Z,80.90
2023-04-17T10:09:45.636Z,81.75
2023-04-17T10:12:15.357Z,80.46
2023-04-17T10:14:46.586Z,81.96
2023-04-17T10:17:31.755Z,77.29
2023-04-17T10:20:23.120Z,79.28
2023-04-17T10:22:54.872Z,77.62
2023-04-17T10:25:28.214Z,77.93
2023-04-17T10:27:58.300Z,72.33
2023-04-17T10:30:44.913Z,72.64
2023-04-17T10:33:20.096Z,69.65
2023-04-17T10:35:46.779Z,69.99
2023-04-17T10:38:13.293Z,72.52
2023-04-17T10:40:43.060Z,73.23
2023-04-17T10:43:17.561Z,76.18
2023-04-17T10:46:12.880Z,73.09
2023-04-17T10:48:52.807Z,75.06
2023-04-17T10:51:28.910Z,77.18
2023-04-17T10:54:03.688Z,72.24
2023-04-17T10:56:40.641Z,74.73
2023-04-17T10:59:09.657Z,72.50
2023-04-17T11:01:48.578Z,70.28
2023-04-17T11:04:27.530Z,72.19
2023-04-17T11:06:55.933Z,73.87
2023-04-17T11:09:30.945Z,76.41
2023-04-17T11:12:03.706Z,75.43
2023-04-17T11:14:31.095Z,72.74
2023-04-17T11:16:57.759Z,79.66
2023-04-17T11:19:26.164Z,73.37
2023-04-17T11:21:54.650Z,79.52
2023-04-17T11:24:28.103Z,72.59
2023-04-17T11:26:56.709Z,69.15
2023-04-17T11:29:24.536Z,69.82
2023-04-17T11:31:53.794Z,72.86
2023-04-17T11:34:21.128Z,73.06
2023-04-17T11:36:54.863Z,70.90
2023-04-17T11:39:23.358Z,75.14
2023-04-17T11:41:51.919Z,68.68
2023-04-17T11:44:22.707Z,68.49
2023-04-17T11:46:51.260Z,73.03
2023-04-17T11:49:27.377Z,71.23
2023-04-17T11:51:59.246Z,69.73
2023-04-17T11:54:34.522Z,69.49
2023-04-17T11:57:07.008Z,68.19
2023-04-17T11:59:37.787Z,74.72
2023-04-17T12:02:08.301Z,70.76
2023-04-17T12:04:39.673Z,66.34
2023-04-17T12:07:11.279Z,69.53
2023-04-17T12:09:37.766Z,70.89
2023-04-17T12:12:06.416Z,64.53
2023-04-17T12:14:33.256Z,65.83
2023-04-17T12:16:59.868Z,66.26
2023-04-17T12:19:27.449Z,71.08
2023-04-17T12:21:54.616Z,68.72
2023-04-17T12:24:22.895Z,72.58
2023-04-17T12:26:53.445Z,69.74
2023-04-17T12:29:32.231Z,71.64
2023-04-17T12:32:07.415Z,73.97
2023-04-17T12:34:34.071Z,70.24
2023-04-17T12:37:01.125Z,65.86
2023-04-17T12:39:27.629Z,68.08
2023-04-17T12:41:54.089Z,66.98
2023-04-17T12:44:20.691Z,62.84
2023-04-17T12:46:47.178Z,62.68
2023-04-17T12:49:13.736Z,61.83
2023-04-17T12:51:41.208Z,64.73
2023-04-17T12:54:08.208Z,66.72
2023-04-17T12:56:34.896Z,63.78
2023-04-17T12:59:02.990Z,61.61
2023-04-17T13:01:32.944Z,64.65
2023-04-17T13:03:59.600Z,66.01
2023-04-17T13:06:28.033Z,62.60
2023-04-17T13:08:54.538Z,66.17
2023-04-17T13:11:23.440Z,62.42
2023-04-17T13:13:49.921Z,65.00
2023-04-17T13:16:16.457Z,59.42
2023-04-17T13:18:42.992Z,60.14
2023-04-17T13:21:09.515Z,60.31
2023-04-17T13:23:36.020Z,61.95
2023-04-17T13:26:02.481Z,62.07
2023-04-17T13:28:28.936Z,67.80
2023-04-17T13:30:55.828Z,66.99
2023-04-17T13:33:22.370Z,62.50
2023-04-17T13:35:53.181Z,63.70
2023-04-17T13:38:19.653Z,64.55
2023-04-17T13:40:46.206Z,68.44
2023-04-17T13:43:12.662Z,67.34
2023-04-17T13:45:39.161Z,65.59
2023-04-17T13:48:05.783Z,65.54
2023-04-17T13:50:32.371Z,68.12
2023-04-17T13:52:58.855Z,64.11
2023-04-17T13:55:25.412Z,66.04
2023-04-17T13:57:51.898Z,60.09
2023-04-17T14:00:18.891Z,60.71
2023-04-17T14:02:45.499Z,60.54
2023-04-17T14:05:12.278Z,57.97
2023-04-17T14:07:38.764Z,60.58
2023-04-17T14:10:09.122Z,61.19
2023-04-17T14:12:36.286Z,58.59
2023-04-17T14:15:03.026Z,57.81
2023-04-17T14:17:29.592Z,56.39
2023-04-17T14:19:59.122Z,60.27
2023-04-17T14:22:25.619Z,61.38
2023-04-17T14:24:52.107Z,65.85
2023-04-17T14:27:18.572Z,65.11
2023-04-17T14:29:47.487Z,65.41
2023-04-17T14:32:13.925Z,63.55
2023-04-17T14:34:40.404Z,63.03
2023-04-17T14:37:06.882Z,63.78
2023-04-17T14:39:33.389Z,59.85
2023-04-17T14:42:01.912Z,59.96
2023-04-17T14:44:28.874Z,56.44
2023-04-17T14:46:56.801Z,61.75
2023-04-17T14:49:26.717Z,64.99
2023-04-17T14:51:53.264Z,63.05
2023-04-17T14:54:19.732Z,62.36
2023-04-17T14:56:46.255Z,61.85
2023-04-17T14:59:12.921Z,60.17
2023-04-17T15:01:39.611Z,61.65
2023-04-17T15:04:06.710Z,59.73
2023-04-17T15:06:33.464Z,59.49
2023-04-17T15:08:59.897Z,57.09
2023-04-17T15:11:26.447Z,62.17
2023-04-17T15:13:52.888Z,60.80
2023-04-17T15:16:22.267Z,66.27
2023-04-17T15:18:48.916Z,61.11
2023-04-17T15:21:16.349Z,59.98
2023-04-17T15:23:42.810Z,59.41
2023-04-17T15:26:09.320Z,61.99
2023-04-17T15:28:36.883Z,62.71
2023-04-17T15:31:03.494Z,60.59
2023-04-17T15:33:30.140Z,61.39
2023-04-17T15:35:58.442Z,62.40
2023-04-17T15:38:25.817Z,63.39
2023-04-17T15:40:52.766Z,69.04
2023-04-17T15:43:20.004Z,65.74
2023-04-17T15:45:48.694Z,62.00
2023-04-17T15:48:15.834Z,65.29
2023-04-17T15:50:42.430Z,64.42
2023-04-17T15:53:09.820Z,64.42
2023-04-17T15:55:36.771Z,64.77
2023-04-17T15:58:03.475Z,64.64
2023-04-17T16:00:30.023Z,65.44
2023-04-17T16:02:56.557Z,64.30
2023-04-17T16:05:23.069Z,63.48
2023-04-17T16:07:50.027Z,62.72
2023-04-17T16:10:16.971Z,65.57
2023-04-17T16:12:45.013Z,63.56
2023-04-17T16:15:16.286Z,67.13
2023-04-17T16:17:43.397Z,65.24
2023-04-17T16:20:13.269Z,62.46
2023-04-17T16:22:40.203Z,63.02
2023-04-17T16:25:09.983Z,63.29
2023-04-17T16:27:37.060Z,62.70
2023-04-17T16:30:05.045Z,62.59
2023-04-17T16:32:31.945Z,63.73
2023-04-17T16:34:58.790Z,64.81
2023-04-17T16:37:25.604Z,63.69
2023-04-17T16:39:52.274Z,63.38
2023-04-17T16:42:18.845Z,64.29
2023-04-17T16:44:48.807Z,67.30
2023-04-17T16:47:15.411Z,68.67
2023-04-17T16:49:42.613Z,69.04
2023-04-17T16:52:09.657Z,68.96
2023-04-17T16:54:36.104Z,67.91
2023-04-17T16:57:02.673Z,68.12
2023-04-17T16:59:29.111Z,69.38
2023-04-17T17:01:55.669Z,70.05
2023-04-17T17:04:22.263Z,69.58
2023-04-17T17:06:48.815Z,70.09
2023-04-17T17:09:15.559Z,69.75
2023-04-17T17:11:45.211Z,70.33
2023-04-17T17:14:11.755Z,73.16
2023-04-17T17:16:40.627Z,71.63
2023-04-17T17:19:07.183Z,71.18
2023-04-17T17:21:33.672Z,72.37
2023-04-17T17:24:00.931Z,72.37
2023-04-17T17:26:27.405Z,72.84
2023-04-17T17:28:55.366Z,74.34
2023-04-17T17:31:21.958Z,73.39
2023-04-17T17:33:50.182Z,75.04
2023-04-17T17:36:16.989Z,76.29
2023-04-17T17:38:44.000Z,77.65
2023-04-17T17:41:10.650Z,78.06
2023-04-17T17:43:38.925Z,79.03
2023-04-17T17:46:05.543Z,79.21
2023-04-17T17:48:34.079Z,80.00
2023-04-17T17:51:00.531Z,80.89
2023-04-17T17:53:27.320Z,81.91
2023-04-17T17:55:55.978Z,84.51
2023-04-17T17:58:23.305Z,84.71
2023-04-17T18:00:53.378Z,84.18
2023-04-17T18:03:20.722Z,85.04
2023-04-17T18:05:47.611Z,85.67
2023-04-17T18:08:14.474Z,84.88
2023-04-17T18:10:40.996Z,84.83
2023-04-17T18:13:07.508Z,85.70
2023-04-17T18:15:34.106Z,84.73
2023-04-17T18:18:00.749Z,85.08
2023-04-17T18:20:27.378Z,85.03
2023-04-17T18:22:53.965Z,85.84
2023-04-17T18:25:20.626Z,84.90
2023-04-17T18:27:47.081Z,85.38
2023-04-17T18:30:14.253Z,84.74
2023-04-17T18:32:40.752Z,85.47
2023-04-17T18:35:07.736Z,87.93
2023-04-17T18:37:34.207Z,89.78
2023-04-17T18:40:00.745Z,91.23
2023-04-17T18:42:27.179Z,92.39
2023-04-17T18:44:53.661Z,92.48
2023-04-17T18:47:20.359Z,93.90
2023-04-17T18:49:47.010Z,94.86
2023-04-17T18:52:13.508Z,95.28
2023-04-17T18:54:40.035Z,95.41
2023-04-17T18:57:06.582Z,95.45
2023-04-17T18:59:33.136Z,96.42
2023-04-17T19:01:59.592Z,96.76
2023-04-17T19:04:26.752Z,97.07
2023-04-17T19:06:53.217Z,96.70
2023-04-17T19:09:19.780Z,97.33
2023-04-17T19:11:46.634Z,97.40
2023-04-17T19:14:13.385Z,95.37
2023-04-17T19:16:40.176Z,95.55
2023-04-17T19:19:08.280Z,95.14
2023-04-17T19:21:34.800Z,95.65
2023-04-17T19:24:01.254Z,97.18
2023-04-17T19:26:27.760Z,97.08
2023-04-17T19:28:55.051Z,97.29
2023-04-17T19:31:21.891Z,98.17
2023-04-17T19:33:48.384Z,99.66
2023-04-17T19:36:14.930Z,100.00
2023-04-17T19:38:41.397Z,100.00
2023-04-17T19:41:17.277Z,100.00
2023-04-17T19:43:49.715Z,100.00
2023-04-17T19:46:17.065Z,100.00
2023-04-17T19:48:45.301Z,100.00
2023-04-17T19:51:15.953Z,100.00
2023-04-17T19:53:43.633Z,100.00
2023-04-17T19:56:10.837Z,100.00
2023-04-17T19:58:38.181Z,100.00
2023-04-17T20:01:05.281Z,100.00
2023-04-17T20:03:32.466Z,100.00
2023-04-17T20:06:00.129Z,100.00
2023-04-17T20:08:26.740Z,100.00
2023-04-17T20:10:56.384Z,100.00
2023-04-17T20:13:22.845Z,100.00
2023-04-17T20:15:49.460Z,100.00
2023-04-17T20:18:18.844Z,100.00
2023-04-17T20:20:45.436Z,100.00
2023-04-17T20:23:12.216Z,100.00
2023-04-17T20:25:38.718Z,100.00
2023-04-17T20:28:09.627Z,100.00
2023-04-17T20:30:41.579Z,100.00
2023-04-17T20:33:11.100Z,100.00
2023-04-17T20:35:37.659Z,100.00
2023-04-17T20:38:04.533Z,100.00
2023-04-17T20:40:31.031Z,100.00
2023-04-17T20:42:57.491Z,100.00
2023-04-17T20:45:23.970Z,100.00
2023-04-17T20:50:24.080Z,100.00
2023-04-17T20:52:50.712Z,100.00
2023-04-17T20:55:19.569Z,100.00
2023-04-17T20:57:46.381Z,100.00
2023-04-17T21:00:13.337Z,100.00
2023-04-17T21:02:40.007Z,100.00
2023-04-17T21:05:09.621Z,100.00
2023-04-17T21:07:36.597Z,100.00
2023-04-17T21:10:03.601Z,100.00
2023-04-17T21:12:32.725Z,100.00
2023-04-17T21:15:01.955Z,100.00
2023-04-17T21:17:28.583Z,100.00
2023-04-17T21:19:56.230Z,100.00
2023-04-17T21:22:22.841Z,100.00
2023-04-17T21:24:49.465Z,100.00
2023-04-17T21:27:16.202Z,100.00
2023-04-17T21:29:43.184Z,100.00
2023-04-17T21:32:12.437Z,100.00
2023-04-17T21:34:39.146Z,100.00
2023-04-17T21:37:05.614Z,100.00
2023-04-17T21:39:33.327Z,100.00
2023-04-17T21:42:00.222Z,100.00
2023-04-17T21:44:26.706Z,100.00
2023-04-17T21:46:53.330Z,100.00
2023-04-17T21:49:28.295Z,100.00
2023-04-17T21:52:02.583Z,100.00
2023-04-17T21:54:29.051Z,100.00
2023-04-17T21:56:55.683Z,100.00
2023-04-17T21:59:22.160Z,100.00
2023-04-17T22:01:48.667Z,100.00
2023-04-17T22:04:15.281Z,100.00
2023-04-17T22:06:44.492Z,100.00
2023-04-17T22:09:12.480Z,100.00
2023-04-17T22:11:48.450Z,100.00
2023-04-17T22:14:16.529Z,100.00
2023-04-17T22:16:43.593Z,100.00
2023-04-17T22:19:13.468Z,100.00
2023-04-17T22:21:40.188Z,100.00
2023-04-17T22:24:10.687Z,100.00
2023-04-17T22:26:43.702Z,100.00
2023-04-17T22:29:10.173Z,100.00
2023-04-17T22:31:36.793Z,100.00
2023-04-17T22:34:03.652Z,100.00
2023-04-17T22:36:36.069Z,100.00
2023-04-17T22:39:02.636Z,100.00
2023-04-17T22:41:32.324Z,100.00
2023-04-17T22:43:58.811Z,100.00
2023-04-17T22:46:25.289Z,100.00
2023-04-17T22:48:51.802Z,100.00
2023-04-17T22:51:18.250Z,100.00
2023-04-17T22:53:44.732Z,100.00
2023-04-17T22:56:12.871Z,100.00
2023-04-17T22:58:39.363Z,100.00
2023-04-17T23:01:09.155Z,100.00
2023-04-17T23:03:35.745Z,100.00
2023-04-17T23:06:03.086Z,100.00
2023-04-17T23:08:32.591Z,100.00
2023-04-17T23:11:00.780Z,100.00
2023-04-17T23:13:28.164Z,100.00
2023-04-17T23:15:54.836Z,100.00
2023-04-17T23:18:21.428Z,100.00
2023-04-17T23:20:47.949Z,100.00
2023-04-17T23:23:18.425Z,100.00
2023-04-17T23:25:46.093Z,100.00
2023-04-17T23:28:12.642Z,100.00
2023-04-17T23:30:39.183Z,100.00
2023-04-17T23:33:05.739Z,100.00
2023-04-17T23:35:32.242Z,100.00
2023-04-17T23:37:58.707Z,100.00
2023-04-17T23:40:26.290Z,100.00
2023-04-17T23:42:53.070Z,100.00
2023-04-17T23:45:22.857Z,100.00
2023-04-17T23:47:49.433Z,100.00
2023-04-17T23:50:16.017Z,100.00
2023-04-17T23:52:42.503Z,100.00
2023-04-17T23:55:09.265Z,100.00
2023-04-17T23:57:37.736Z,100.00
